createdAt,value
2017-06-19T19:13:08.853Z,52.30
2017-06-19T19:15:36.718Z,52.20
2017-06-19T19:18:04.558Z,52.60
2017-06-19T19:20:33.089Z,53.00
2017-06-19T19:23:01.996Z,53.70
2017-06-19T19:25:30.118Z,53.50
2017-06-19T19:27:59.090Z,53.90
2017-06-19T19:30:27.529Z,54.50
2017-06-19T19:32:55.408Z,54.50
2017-06-19T19:35:23.910Z,54.50
2017-06-19T19:37:51.503Z,54.80
2017-06-19T19:40:19.062Z,55.10
2017-06-19T19:42:46.700Z,55.10
2017-06-19T19:45:14.302Z,55.30
2017-06-19T19:47:44.585Z,55.80
2017-06-19T19:50:12.632Z,55.70
2017-06-19T19:52:40.241Z,56.00
2017-06-19T19:55:08.061Z,56.30
2017-06-19T19:57:36.623Z,56.70
2017-06-19T20:00:04.441Z,56.70
2017-06-19T20:02:32.456Z,56.80
2017-06-19T20:05:01.198Z,57.10
2017-06-19T20:07:29.192Z,57.10
2017-06-19T20:09:57.137Z,57.10
2017-06-19T20:12:25.523Z,57.40
2017-06-19T20:14:53.992Z,57.50
2017-06-19T20:17:21.553Z,57.50
2017-06-19T20:19:49.280Z,57.40
2017-06-19T20:22:16.856Z,57.70
2017-06-19T20:24:44.463Z,58.10
2017-06-19T20:27:12.820Z,57.80
2017-06-19T20:29:40.712Z,57.70
2017-06-19T20:32:08.875Z,57.60
2017-06-19T20:34:37.340Z,57.80
2017-06-19T20:37:06.065Z,57.90
2017-06-19T20:39:33.761Z,57.80
2017-06-19T20:42:02.526Z,57.80
2017-06-19T20:44:30.357Z,57.70
2017-06-19T20:46:58.082Z,57.60
2017-06-19T20:49:26.970Z,57.80
2017-06-19T20:51:54.579Z,57.30
2017-06-19T20:54:22.162Z,57.30
2017-06-19T20:56:51.605Z,57.50
2017-06-19T20:59:19.192Z,57.50
2017-06-19T21:01:46.780Z,57.70
2017-06-19T21:04:14.387Z,58.00
2017-06-19T21:06:42.014Z,58.10
2017-06-19T21:09:09.849Z,58.10
2017-06-19T21:11:37.716Z,58.10
2017-06-19T21:14:05.396Z,58.30
2017-06-19T21:16:33.601Z,58.40
2017-06-19T21:19:02.527Z,59.00
2017-06-19T21:21:31.991Z,59.00
2017-06-19T21:24:00.076Z,59.20
2017-06-19T21:26:29.566Z,59.40
2017-06-19T21:28:57.512Z,59.90
2017-06-19T21:31:26.634Z,59.70
2017-06-19T21:33:55.097Z,59.90
2017-06-19T21:36:22.955Z,60.10
2017-06-19T21:38:50.521Z,60.20
2017-06-19T21:41:18.142Z,60.60
2017-06-19T21:43:45.730Z,60.80
2017-06-19T21:46:13.421Z,61.10
2017-06-19T21:48:41.168Z,61.50
2017-06-19T21:51:10.118Z,61.80
2017-06-19T21:53:37.862Z,62.30
2017-06-19T21:56:06.378Z,62.40
2017-06-19T21:58:35.069Z,62.60
2017-06-19T22:01:02.921Z,62.40
2017-06-19T22:03:31.505Z,62.40
2017-06-19T22:05:59.934Z,62.60
2017-06-19T22:08:28.020Z,62.70
2017-06-19T22:10:56.793Z,62.70
2017-06-19T22:13:25.767Z,62.20
2017-06-19T22:15:53.361Z,62.10
2017-06-19T22:18:21.277Z,61.60
2017-06-19T22:20:54.403Z,61.60
2017-06-19T22:23:24.369Z,61.80
2017-06-19T22:25:52.479Z,62.20
2017-06-19T22:28:20.039Z,62.20
2017-06-19T22:30:47.666Z,63.00
2017-06-19T22:33:15.250Z,62.50
2017-06-19T22:35:42.910Z,62.60
2017-06-19T22:38:11.561Z,63.10
2017-06-19T22:40:39.601Z,63.30
2017-06-19T22:43:07.586Z,63.60
2017-06-19T22:45:36.560Z,63.30
2017-06-19T22:48:04.367Z,63.60
2017-06-19T22:50:32.605Z,63.40
2017-06-19T22:53:00.773Z,63.50
2017-06-19T22:55:28.780Z,64.00
2017-06-19T22:57:57.620Z,64.10
2017-06-19T23:00:25.804Z,64.00
2017-06-19T23:02:53.412Z,64.10
2017-06-19T23:05:21.002Z,64.30
2017-06-19T23:07:49.036Z,64.50
2017-06-19T23:10:16.651Z,64.90
2017-06-19T23:12:44.310Z,65.50
2017-06-19T23:15:12.912Z,66.10
2017-06-19T23:17:40.764Z,65.80
2017-06-19T23:20:08.574Z,66.10
2017-06-19T23:22:36.583Z,66.40
2017-06-19T23:25:04.365Z,66.50
2017-06-19T23:27:32.386Z,66.80
2017-06-19T23:30:00.538Z,67.30
2017-06-19T23:32:28.374Z,67.60
2017-06-19T23:34:56.287Z,68.30
2017-06-19T23:37:23.980Z,67.90
2017-06-19T23:39:51.596Z,67.80
2017-06-19T23:42:19.944Z,68.30
2017-06-19T23:44:47.528Z,68.20
2017-06-19T23:47:15.091Z,68.50
2017-06-19T23:49:43.186Z,68.50
2017-06-19T23:52:10.848Z,68.70
2017-06-19T23:54:38.513Z,68.70
2017-06-19T23:57:06.552Z,68.90
2017-06-19T23:59:34.963Z,68.80
